createdAt,value
2022-12-31T00:04:55.789Z,2.90
2022-12-31T00:09:58.866Z,3.08
2022-12-31T00:15:02.103Z,2.85
2022-12-31T00:20:06.823Z,3.45
2022-12-31T00:25:10.436Z,2.65
2022-12-31T00:30:14.611Z,3.40
2022-12-31T00:35:17.628Z,3.15
2022-12-31T00:40:20.781Z,2.63
2022-12-31T00:45:23.804Z,2.78
2022-12-31T00:50:26.874Z,3.70
2022-12-31T00:55:31.019Z,3.03
2022-12-31T01:00:34.115Z,2.30
2022-12-31T01:05:37.473Z,2.78
2022-12-31T01:10:59.951Z,2.50
2022-12-31T01:16:11.144Z,2.67
2022-12-31T01:21:15.371Z,3.22
2022-12-31T01:26:19.724Z,1.92
2022-12-31T01:31:25.144Z,2.22
2022-12-31T01:36:30.702Z,2.33
2022-12-31T01:41:37.224Z,2.03
2022-12-31T01:46:45.850Z,2.00
2022-12-31T01:51:57.515Z,2.55
2022-12-31T01:57:01.688Z,2.58
2022-12-31T02:02:06.178Z,2.55
2022-12-31T02:07:10.463Z,1.88
2022-12-31T02:12:13.550Z,2.05
2022-12-31T02:17:55.211Z,2.42
2022-12-31T02:23:40.562Z,2.45
2022-12-31T02:28:49.498Z,2.03
2022-12-31T02:34:00.911Z,2.63
2022-12-31T02:39:07.021Z,2.78
2022-12-31T02:44:34.044Z,2.78
2022-12-31T02:50:01.805Z,2.50
2022-12-31T02:55:33.936Z,3.00
2022-12-31T03:01:04.318Z,2.65
2022-12-31T03:06:09.540Z,2.90
2022-12-31T03:11:32.498Z,2.25
2022-12-31T03:16:35.580Z,2.67
2022-12-31T03:21:59.028Z,2.63
2022-12-31T03:27:02.098Z,2.90
2022-12-31T03:32:05.396Z,2.25
2022-12-31T03:37:08.753Z,2.53
2022-12-31T03:42:11.841Z,2.38
2022-12-31T03:47:14.948Z,2.35
2022-12-31T03:52:18.046Z,2.13
2022-12-31T03:57:21.116Z,2.33
2022-12-31T04:02:28.593Z,2.63
2022-12-31T04:07:32.458Z,1.98
2022-12-31T04:12:35.885Z,2.80
2022-12-31T04:17:38.908Z,2.55
2022-12-31T04:22:43.054Z,1.73
2022-12-31T04:27:47.454Z,2.28
2022-12-31T04:32:50.548Z,2.38
2022-12-31T04:37:53.525Z,2.17
2022-12-31T04:42:56.644Z,3.03
2022-12-31T04:47:59.689Z,2.10
2022-12-31T04:53:02.748Z,1.73
2022-12-31T04:58:07.336Z,2.28
2022-12-31T05:03:19.500Z,2.22
2022-12-31T05:08:22.553Z,2.50
2022-12-31T05:13:32.763Z,1.75
2022-12-31T05:18:37.161Z,1.88
2022-12-31T05:23:40.236Z,1.90
2022-12-31T05:28:43.449Z,1.60
2022-12-31T05:33:46.555Z,1.65
2022-12-31T05:38:49.631Z,1.60
2022-12-31T05:43:52.705Z,1.75
2022-12-31T05:48:55.749Z,1.70
2022-12-31T05:53:58.849Z,1.60
2022-12-31T05:59:01.882Z,2.22
2022-12-31T06:04:05.152Z,1.83
2022-12-31T06:09:08.504Z,1.95
2022-12-31T06:14:11.997Z,1.60
2022-12-31T06:19:15.129Z,1.88
2022-12-31T06:24:18.537Z,1.98
2022-12-31T06:29:21.631Z,2.28
2022-12-31T06:39:44.308Z,1.38
2022-12-31T06:44:47.365Z,2.00
2022-12-31T06:49:50.531Z,1.70
2022-12-31T06:54:53.944Z,1.70
2022-12-31T06:59:57.496Z,2.03
2022-12-31T07:05:31.019Z,1.58
2022-12-31T07:16:13.920Z,1.65
2022-12-31T07:21:22.408Z,1.92
2022-12-31T07:26:40.940Z,2.53
2022-12-31T07:32:16.153Z,1.77
2022-12-31T07:38:00.208Z,1.73
2022-12-31T07:43:35.198Z,1.70
2022-12-31T07:53:59.994Z,1.30
2022-12-31T07:59:11.681Z,1.27
2022-12-31T08:04:28.441Z,1.52
2022-12-31T08:09:45.568Z,1.65
2022-12-31T08:14:49.173Z,1.90
2022-12-31T08:19:52.607Z,2.10
2022-12-31T08:25:16.907Z,1.98
2022-12-31T08:30:21.996Z,1.90
2022-12-31T08:35:58.023Z,2.25
2022-12-31T08:41:23.110Z,2.22
2022-12-31T08:46:37.257Z,2.10
2022-12-31T08:51:41.141Z,2.83
2022-12-31T08:56:52.336Z,4.38
2022-12-31T09:02:34.287Z,3.03
2022-12-31T09:07:49.321Z,3.30
2022-12-31T09:13:17.428Z,3.65
2022-12-31T09:18:20.759Z,3.55
2022-12-31T09:23:24.076Z,3.67
2022-12-31T09:28:40.171Z,3.60
2022-12-31T09:33:48.952Z,4.05
2022-12-31T09:39:03.682Z,3.75
2022-12-31T09:50:21.836Z,3.95
2022-12-31T09:55:30.625Z,4.75
2022-12-31T10:00:45.431Z,4.95
2022-12-31T10:06:02.167Z,3.58
2022-12-31T10:11:22.557Z,3.92
2022-12-31T10:16:51.820Z,5.05
2022-12-31T10:27:44.570Z,4.00
2022-12-31T10:33:09.215Z,5.50
2022-12-31T10:38:28.303Z,4.63
2022-12-31T10:43:37.120Z,4.47
2022-12-31T10:48:45.730Z,4.53
2022-12-31T10:54:03.563Z,4.60
2022-12-31T10:59:24.383Z,4.63
2022-12-31T11:04:30.503Z,4.60
2022-12-31T11:10:07.056Z,4.38
2022-12-31T11:15:39.035Z,5.97
2022-12-31T11:21:28.047Z,5.50
2022-12-31T11:37:06.893Z,5.57
2022-12-31T11:42:37.639Z,5.47
2022-12-31T11:48:29.203Z,6.60
2022-12-31T11:53:38.479Z,5.68
2022-12-31T11:58:47.987Z,6.93
2022-12-31T12:03:51.054Z,6.88
2022-12-31T12:08:59.633Z,7.50
2022-12-31T12:14:19.686Z,8.13
2022-12-31T12:19:26.733Z,7.65
2022-12-31T12:24:30.478Z,7.28
2022-12-31T12:29:35.281Z,9.10
2022-12-31T12:34:47.579Z,7.85
2022-12-31T12:40:02.145Z,6.55
2022-12-31T12:45:14.847Z,7.03
2022-12-31T12:50:24.951Z,7.85
2022-12-31T12:56:12.801Z,7.82
2022-12-31T13:01:35.320Z,8.13
2022-12-31T13:07:08.329Z,8.02
2022-12-31T13:13:22.063Z,7.90
2022-12-31T13:18:49.156Z,8.25
2022-12-31T13:23:58.211Z,8.65
2022-12-31T13:29:03.031Z,9.07
2022-12-31T13:34:16.547Z,9.90
2022-12-31T13:39:26.180Z,9.38
2022-12-31T13:44:55.353Z,9.18
2022-12-31T13:50:25.652Z,9.52
2022-12-31T13:55:40.673Z,10.73
2022-12-31T14:01:20.919Z,10.90
2022-12-31T14:06:27.730Z,10.55
2022-12-31T14:17:11.809Z,10.43
2022-12-31T14:22:20.405Z,11.52
2022-12-31T14:27:30.117Z,10.15
2022-12-31T14:33:02.767Z,11.63
2022-12-31T14:38:21.223Z,10.20
2022-12-31T14:43:45.597Z,10.35
2022-12-31T14:49:02.974Z,9.65
2022-12-31T14:54:06.077Z,9.30
2022-12-31T14:59:35.676Z,10.25
2022-12-31T15:04:46.291Z,10.52
2022-12-31T15:16:02.583Z,8.70
2022-12-31T15:22:02.173Z,9.57
2022-12-31T15:27:07.155Z,10.68
2022-12-31T15:32:28.617Z,9.30
2022-12-31T15:37:35.241Z,9.85
2022-12-31T15:48:00.680Z,8.00
2022-12-31T15:53:06.399Z,9.07
2022-12-31T15:58:17.729Z,8.15
2022-12-31T16:03:24.475Z,8.55
2022-12-31T16:18:43.904Z,7.13
2022-12-31T16:23:51.448Z,5.63
2022-12-31T16:29:00.283Z,6.05
2022-12-31T16:34:12.360Z,6.18
2022-12-31T16:39:34.024Z,5.75
2022-12-31T16:44:37.215Z,5.60
2022-12-31T16:54:58.083Z,6.30
2022-12-31T17:00:05.038Z,6.47
2022-12-31T17:05:22.824Z,6.25
2022-12-31T17:10:44.851Z,5.95
2022-12-31T17:15:48.300Z,5.82
2022-12-31T17:20:54.098Z,5.25
2022-12-31T17:26:08.645Z,5.00
2022-12-31T17:31:36.250Z,5.25
2022-12-31T17:36:41.282Z,5.20
2022-12-31T17:41:50.357Z,4.63
2022-12-31T17:46:54.124Z,5.82
2022-12-31T17:51:57.227Z,4.80
2022-12-31T17:57:00.455Z,5.00
2022-12-31T18:02:05.589Z,4.95
2022-12-31T18:07:08.755Z,5.47
2022-12-31T18:12:14.646Z,5.95
2022-12-31T18:17:17.759Z,5.30
2022-12-31T18:22:21.264Z,5.47
2022-12-31T18:27:24.414Z,6.22
2022-12-31T18:32:30.737Z,5.55
2022-12-31T18:37:35.288Z,5.47
2022-12-31T18:42:38.603Z,4.82
2022-12-31T18:47:41.648Z,5.72
2022-12-31T18:52:44.803Z,4.82
2022-12-31T18:57:47.918Z,5.97
2022-12-31T19:02:50.998Z,5.82
2022-12-31T19:07:55.123Z,5.43
2022-12-31T19:12:58.147Z,5.13
2022-12-31T19:18:02.844Z,5.15
2022-12-31T19:23:06.327Z,5.78
2022-12-31T19:28:16.779Z,4.70
2022-12-31T19:33:20.394Z,5.25
2022-12-31T19:38:26.107Z,5.25
2022-12-31T19:43:29.584Z,4.53
2022-12-31T19:48:33.170Z,4.82
2022-12-31T19:53:36.440Z,5.55
2022-12-31T19:58:39.482Z,5.95
2022-12-31T20:03:42.593Z,5.05
2022-12-31T20:08:46.799Z,5.10
2022-12-31T20:13:52.687Z,5.38
2022-12-31T20:18:55.900Z,5.38
2022-12-31T20:23:58.980Z,5.75
2022-12-31T20:29:08.072Z,4.03
2022-12-31T20:34:11.531Z,4.68
2022-12-31T20:39:14.572Z,5.38
2022-12-31T20:44:17.611Z,4.97
2022-12-31T20:49:37.111Z,5.35
2022-12-31T20:54:43.656Z,5.90
2022-12-31T20:59:46.704Z,4.90
2022-12-31T21:04:49.833Z,4.88
2022-12-31T21:09:53.637Z,5.05
2022-12-31T21:14:56.776Z,10.88
2022-12-31T21:19:59.862Z,10.55
2022-12-31T21:25:03.514Z,9.95
2022-12-31T21:30:22.356Z,6.03
2022-12-31T21:35:45.847Z,6.80
2022-12-31T21:40:49.339Z,5.95
2022-12-31T21:46:01.312Z,5.93
2022-12-31T21:51:15.192Z,5.03
2022-12-31T21:56:21.419Z,6.18
2022-12-31T22:01:42.957Z,6.07
2022-12-31T22:06:46.223Z,4.93
2022-12-31T22:11:49.292Z,4.75
2022-12-31T22:16:52.316Z,4.80
2022-12-31T22:27:28.114Z,4.43
2022-12-31T22:32:32.846Z,5.25
2022-12-31T22:37:56.260Z,4.90
2022-12-31T22:43:00.218Z,5.63
2022-12-31T22:48:03.258Z,4.25
2022-12-31T22:53:06.274Z,3.83
2022-12-31T23:03:26.265Z,4.53
2022-12-31T23:08:29.462Z,3.83
2022-12-31T23:13:58.897Z,3.97
2022-12-31T23:19:20.403Z,4.10
2022-12-31T23:24:26.698Z,3.30
2022-12-31T23:29:29.927Z,3.38
2022-12-31T23:39:53.793Z,3.13
2022-12-31T23:44:56.804Z,3.53
2022-12-31T23:49:59.795Z,3.83
2022-12-31T23:55:03.978Z,3.25
